Da Xian, China
Current Conditions -  °F | °C
As of 12:00 PM on Friday 31 Oct 2014 (Local Time) from ZUCK Reporting Station
Scattered Clouds Scattered Clouds  
Wind Chill: 68°   Ceiling: Unl
Heat Index: 68°   Visibility: 6mi
Dew Point: 57°   Wind: 7mph
Humidity: 68%   Direction: 10°N
Pressure: 30.03"   Gusts: NA
Location:  31.2°N, 107.5°E
Report Text: ZUCK 310400Z 01003MPS 9999 SCT033 20/14 Q1017 NOSIG
Loading
Personal Weather Stations






























Interactive Weather Map New forecast layout! Learn more

10-Day Weather Forecast

Advertisements
Track Severe Weather on mobile